Time;durP1;ratioP1;P1;durP2;ratioP2;P2;SDS_P1;SDS_P2;PMS_P1;PMS_P2;Temp;Humidity;BMP_temperature;BMP_pressure;BME280_temperature;BME280_humidity;BME280_pressure;Samples;Min_cycle;Max_cycle;Signal;HPM_P1;HPM_P2
2024/01/05 00:01:58;;;;;;;6.60;5.27;;;;;;;-1.53;78.97;99223.88;4988988;28;20703;-57
2024/01/05 00:04:26;;;;;;;7.83;4.70;;;;;;;-1.54;79.06;99233.13;5001848;28;20204;-59
2024/01/05 00:06:54;;;;;;;8.53;4.93;;;;;;;-1.48;79.38;99229.88;4988662;28;20262;-59
2024/01/05 00:09:22;;;;;;;7.40;6.10;;;;;;;-1.42;79.22;99234.25;5004520;28;20218;-58
2024/01/05 00:11:52;;;;;;;7.90;4.67;;;;;;;-1.34;79.57;99238.63;4994449;28;20606;-58
2024/01/05 00:14:20;;;;;;;7.27;4.77;;;;;;;-1.26;79.40;99243.88;4988637;28;20385;-62
2024/01/05 00:16:49;;;;;;;6.70;5.00;;;;;;;-1.20;79.34;99249.06;4992067;28;20632;-62
2024/01/05 00:19:17;;;;;;;10.03;5.10;;;;;;;-1.19;79.13;99240.66;5006001;28;20227;-58
2024/01/05 00:21:45;;;;;;;6.67;4.77;;;;;;;-1.20;78.96;99259.19;4994282;28;20211;-59
2024/01/05 00:24:13;;;;;;;6.90;4.60;;;;;;;-1.29;78.27;99253.91;4988875;28;20212;-59
2024/01/05 00:26:42;;;;;;;7.33;4.33;;;;;;;-1.42;78.85;99252.78;4990992;28;20212;-59
2024/01/05 00:29:10;;;;;;;6.33;4.30;;;;;;;-1.47;78.74;99260.25;4997692;28;20269;-65
2024/01/05 00:31:39;;;;;;;6.40;4.23;;;;;;;-1.46;78.87;99281.31;4990465;28;20611;-57
2024/01/05 00:34:08;;;;;;;6.07;4.03;;;;;;;-1.48;78.38;99288.84;4995109;28;20200;-62
2024/01/05 00:36:36;;;;;;;4.17;3.17;;;;;;;-1.48;78.51;99293.03;4990910;28;20203;-58
2024/01/05 00:39:05;;;;;;;5.27;3.87;;;;;;;-1.49;77.91;99299.78;4996619;28;20299;-62
2024/01/05 00:41:33;;;;;;;5.50;3.67;;;;;;;-1.52;77.73;99292.09;4995263;28;20829;-60
2024/01/05 00:44:01;;;;;;;5.80;3.63;;;;;;;-1.50;77.76;99305.66;4995818;28;20203;-59
2024/01/05 00:46:29;;;;;;;6.57;4.30;;;;;;;-1.52;77.34;99294.63;4992059;28;20207;-59
2024/01/05 00:48:57;;;;;;;5.20;3.27;;;;;;;-1.52;77.69;99309.78;4998904;28;20211;-60
2024/01/05 00:51:27;;;;;;;4.90;3.53;;;;;;;-1.50;77.92;99315.75;4997688;28;20208;-66
2024/01/05 00:53:55;;;;;;;4.63;3.20;;;;;;;-1.56;78.32;99314.75;4996540;28;20286;-57
2024/01/05 00:56:23;;;;;;;4.23;3.30;;;;;;;-1.55;78.81;99319.81;4992351;28;20204;-58
2024/01/05 00:58:51;;;;;;;4.03;3.43;;;;;;;-1.50;78.97;99319.94;5001523;28;20572;-59
2024/01/05 01:01:19;;;;;;;5.47;3.73;;;;;;;-1.50;78.81;99323.31;4990553;28;20208;-58
2024/01/05 01:03:47;;;;;;;4.00;3.40;;;;;;;-1.51;79.33;99329.22;4993948;28;20443;-59
2024/01/05 01:06:15;;;;;;;4.23;3.60;;;;;;;-1.47;79.85;99330.13;4995275;28;20223;-63
2024/01/05 01:08:44;;;;;;;5.77;4.20;;;;;;;-1.47;79.70;99332.66;4999481;28;20332;-59
2024/01/05 01:11:16;;;;;;;5.90;3.83;;;;;;;-1.48;80.05;99341.03;5001612;28;20574;-59
2024/01/05 01:13:45;;;;;;;4.93;3.47;;;;;;;-1.47;80.72;99346.16;4994929;28;20753;-59
2024/01/05 01:16:13;;;;;;;4.87;3.80;;;;;;;-1.47;80.80;99346.16;4991318;28;20224;-59
2024/01/05 01:18:41;;;;;;;4.33;3.40;;;;;;;-1.50;81.05;99348.59;4987699;28;20202;-58
2024/01/05 01:21:09;;;;;;;4.17;3.40;;;;;;;-1.50;81.01;99340.16;4995928;28;21030;-57
2024/01/05 01:23:37;;;;;;;6.27;3.13;;;;;;;-1.47;81.16;99341.09;4996389;28;20227;-58
2024/01/05 01:26:06;;;;;;;4.13;3.10;;;;;;;-1.46;80.54;99352.06;4994758;28;20228;-59
2024/01/05 01:28:34;;;;;;;3.97;3.10;;;;;;;-1.49;79.83;99359.56;4998544;28;20219;-60
2024/01/05 01:31:02;;;;;;;4.53;3.20;;;;;;;-1.54;79.44;99358.59;4990893;28;20655;-57
2024/01/05 01:33:30;;;;;;;4.40;2.77;;;;;;;-1.55;80.38;99362.75;5002610;28;20294;-57
2024/01/05 01:35:58;;;;;;;3.87;2.80;;;;;;;-1.50;80.73;99365.44;4987557;28;20660;-56
2024/01/05 01:38:26;;;;;;;4.67;3.20;;;;;;;-1.46;80.68;99363.00;4990851;28;20212;-59
2024/01/05 01:40:56;;;;;;;3.67;2.80;;;;;;;-1.43;79.60;99374.03;4990399;28;20713;-57
2024/01/05 01:43:27;;;;;;;5.03;2.83;;;;;;;-1.49;79.16;99370.50;4998279;28;20573;-58
2024/01/05 01:45:57;;;;;;;4.93;3.17;;;;;;;-1.45;79.20;99381.53;4999387;28;20208;-58
2024/01/05 01:48:25;;;;;;;3.00;2.70;;;;;;;-1.41;79.28;99374.91;5001600;28;20203;-62
2024/01/05 01:50:56;;;;;;;2.90;2.60;;;;;;;-1.42;78.40;99374.03;5006875;28;20658;-64
2024/01/05 01:53:25;;;;;;;2.73;2.37;;;;;;;-1.43;77.93;99372.34;4998366;28;20222;-61
2024/01/05 01:55:54;;;;;;;3.33;2.70;;;;;;;-1.48;77.86;99379.78;5001766;28;20211;-58
2024/01/05 01:58:22;;;;;;;2.77;2.47;;;;;;;-1.48;77.69;99381.47;5004275;28;20731;-58
2024/01/05 02:00:52;;;;;;;3.77;2.57;;;;;;;-1.50;77.85;99378.06;4990309;28;20259;-58
2024/01/05 02:03:20;;;;;;;4.53;2.50;;;;;;;-1.49;77.84;99383.13;4994316;28;20651;-58
2024/01/05 02:05:49;;;;;;;5.57;2.90;;;;;;;-1.51;77.73;99382.25;5001018;28;20228;-57
2024/01/05 02:08:17;;;;;;;4.17;2.80;;;;;;;-1.49;77.69;99375.56;5004980;28;20586;-57
2024/01/05 02:10:45;;;;;;;3.80;2.53;;;;;;;-1.50;77.36;99383.97;4996140;28;20632;-57
2024/01/05 02:13:13;;;;;;;4.00;2.67;;;;;;;-1.49;76.98;99384.81;4991499;28;20719;-58
2024/01/05 02:15:41;;;;;;;3.03;2.73;;;;;;;-1.54;76.53;99379.66;4997829;28;20211;-58
2024/01/05 02:18:14;;;;;;;6.00;2.30;;;;;;;-1.50;76.19;99388.16;5001652;28;20205;-58
2024/01/05 02:20:44;;;;;;;3.17;2.70;;;;;;;-1.51;76.05;99394.88;5008518;28;20581;-57
2024/01/05 02:23:23;;;;;;;5.17;2.53;;;;;;;-1.50;75.58;99405.84;4998474;28;20715;-58
2024/01/05 02:25:51;;;;;;;3.63;2.73;;;;;;;-1.54;75.16;99409.97;5000870;28;20215;-59
2024/01/05 02:28:20;;;;;;;2.80;2.33;;;;;;;-1.55;75.63;99404.84;4993366;28;20214;-58
2024/01/05 02:30:48;;;;;;;3.03;2.23;;;;;;;-1.51;75.69;99412.56;5000610;28;20564;-59
2024/01/05 02:33:16;;;;;;;3.43;2.67;;;;;;;-1.51;75.31;99410.03;4999397;28;20212;-62
2024/01/05 02:35:44;;;;;;;2.67;2.40;;;;;;;-1.47;75.29;99426.16;4996308;28;20619;-56
2024/01/05 02:38:12;;;;;;;3.17;2.60;;;;;;;-1.51;74.65;99415.09;4996424;28;20552;-63
2024/01/05 02:40:42;;;;;;;4.07;2.40;;;;;;;-1.46;74.57;99422.78;4994393;28;20280;-58
2024/01/05 02:43:10;;;;;;;5.00;2.80;;;;;;;-1.40;74.54;99429.66;4993989;28;20274;-61
2024/01/05 02:45:38;;;;;;;2.77;2.17;;;;;;;-1.41;73.86;99428.81;4991507;28;20221;-64
2024/01/05 02:48:07;;;;;;;5.23;2.60;;;;;;;-1.38;73.86;99435.63;4996179;28;20266;-58
2024/01/05 02:50:35;;;;;;;3.70;2.60;;;;;;;-1.39;73.76;99434.78;4996185;28;20208;-59
2024/01/05 02:53:03;;;;;;;3.77;2.53;;;;;;;-1.42;72.86;99434.69;5002180;28;20367;-61
2024/01/05 02:55:31;;;;;;;2.67;2.10;;;;;;;-1.45;72.38;99444.69;4997779;28;20652;-58
2024/01/05 02:58:02;;;;;;;2.63;1.93;;;;;;;-1.50;72.40;99437.00;4991460;28;20726;-57
2024/01/05 03:00:30;;;;;;;3.37;2.40;;;;;;;-1.50;72.18;99439.53;5001172;28;20279;-58
2024/01/05 03:02:58;;;;;;;2.30;2.10;;;;;;;-1.51;71.59;99440.38;4992777;28;20227;-57
2024/01/05 03:05:26;;;;;;;2.93;2.27;;;;;;;-1.53;71.64;99441.97;4993616;28;20230;-57
2024/01/05 03:07:55;;;;;;;2.70;2.00;;;;;;;-1.51;71.82;99445.41;4995224;28;20211;-57
2024/01/05 03:10:23;;;;;;;2.67;1.57;;;;;;;-1.48;71.54;99447.16;5002102;28;20239;-57
2024/01/05 03:12:51;;;;;;;3.07;2.17;;;;;;;-1.48;71.35;99449.66;4998157;28;20204;-57
2024/01/05 03:15:21;;;;;;;2.90;1.90;;;;;;;-1.51;70.81;99447.06;4994000;28;20215;-60
2024/01/05 03:17:49;;;;;;;2.23;2.03;;;;;;;-1.52;71.27;99458.84;4996773;28;20204;-58
2024/01/05 03:20:17;;;;;;;3.60;1.83;;;;;;;-1.52;70.73;99453.78;4999349;28;20228;-58
2024/01/05 03:22:45;;;;;;;3.07;2.10;;;;;;;-1.51;70.71;99459.69;4993642;28;20243;-58
2024/01/05 03:25:14;;;;;;;3.80;2.10;;;;;;;-1.59;69.95;99464.53;4994030;28;20199;-57
2024/01/05 03:27:41;;;;;;;4.10;1.90;;;;;;;-1.56;70.74;99462.09;5001919;28;20232;-63
2024/01/05 03:30:10;;;;;;;2.67;1.90;;;;;;;-1.51;70.70;99469.78;5003864;28;20345;-59
2024/01/05 03:32:39;;;;;;;2.00;1.50;;;;;;;-1.51;70.45;99477.38;5000910;28;20679;-57
2024/01/05 03:35:08;;;;;;;2.43;2.03;;;;;;;-1.52;70.94;99474.00;4994968;28;20672;-62
2024/01/05 03:37:36;;;;;;;2.93;2.13;;;;;;;-1.55;70.36;99483.16;5002179;28;20213;-60
2024/01/05 03:40:05;;;;;;;3.37;1.67;;;;;;;-1.55;70.18;99484.00;4994007;28;20258;-58
2024/01/05 03:42:33;;;;;;;2.27;1.60;;;;;;;-1.55;69.58;99484.00;4992850;28;20307;-58
2024/01/05 03:45:01;;;;;;;2.23;1.63;;;;;;;-1.53;69.32;99482.41;4985466;28;20200;-60
2024/01/05 03:47:29;;;;;;;2.17;1.50;;;;;;;-1.52;68.77;99494.19;4996467;28;20210;-60
2024/01/05 03:49:58;;;;;;;1.37;1.17;;;;;;;-1.55;67.98;99486.53;4995315;28;20200;-58
2024/01/05 03:52:26;;;;;;;1.73;1.30;;;;;;;-1.57;67.39;99510.06;4999254;28;20207;-58
2024/01/05 03:54:54;;;;;;;2.33;1.40;;;;;;;-1.58;67.77;99514.25;4998155;28;20212;-58
2024/01/05 03:57:22;;;;;;;2.53;1.23;;;;;;;-1.62;65.53;99514.09;5000749;28;20299;-57
2024/01/05 03:59:50;;;;;;;1.90;1.10;;;;;;;-1.63;65.80;99514.94;4997822;28;20659;-60
2024/01/05 04:02:18;;;;;;;1.63;1.20;;;;;;;-1.64;65.14;99514.06;5000819;28;20656;-58
2024/01/05 04:04:46;;;;;;;1.10;0.80;;;;;;;-1.65;65.13;99512.38;4997663;28;20299;-57
2024/01/05 04:07:16;;;;;;;1.20;1.03;;;;;;;-1.63;64.72;99519.97;4993569;28;20235;-57
2024/01/05 04:09:43;;;;;;;1.27;1.00;;;;;;;-1.66;64.02;99514.84;4993822;28;20210;-58
2024/01/05 04:12:11;;;;;;;2.93;1.30;;;;;;;-1.64;65.21;99509.03;4996478;28;20298;-61
2024/01/05 04:14:39;;;;;;;1.30;1.10;;;;;;;-1.60;65.14;99520.94;4988352;28;20220;-58
2024/01/05 04:17:07;;;;;;;1.40;0.90;;;;;;;-1.65;64.48;99517.44;4987647;28;20212;-57
2024/01/05 04:19:35;;;;;;;1.00;0.90;;;;;;;-1.60;64.94;99525.97;5001148;28;20200;-57
2024/01/05 04:22:04;;;;;;;2.90;0.80;;;;;;;-1.59;64.47;99535.25;4994152;28;20207;-58
2024/01/05 04:24:33;;;;;;;3.67;0.80;;;;;;;-1.58;64.98;99543.72;4993027;28;20299;-58
2024/01/05 04:27:01;;;;;;;1.00;0.97;;;;;;;-1.59;64.54;99552.94;4996714;28;20216;-64
2024/01/05 04:29:29;;;;;;;1.50;0.90;;;;;;;-1.58;64.68;99551.31;4997036;28;20844;-58
2024/01/05 04:31:57;;;;;;;1.90;1.20;;;;;;;-1.58;64.81;99559.72;4988431;28;20214;-59
2024/01/05 04:34:25;;;;;;;1.13;0.97;;;;;;;-1.58;64.49;99558.88;4995376;28;20216;-59
2024/01/05 04:36:53;;;;;;;1.10;0.83;;;;;;;-1.55;64.48;99559.78;4985096;28;20625;-58
2024/01/05 04:39:21;;;;;;;3.70;0.97;;;;;;;-1.60;64.74;99561.34;5004287;28;20230;-58
2024/01/05 04:41:50;;;;;;;1.47;1.00;;;;;;;-1.53;65.24;99567.44;4992398;28;20671;-59
2024/01/05 04:44:19;;;;;;;1.77;1.10;;;;;;;-1.50;65.12;99572.59;4991062;28;20195;-60
2024/01/05 04:46:47;;;;;;;2.53;1.00;;;;;;;-1.48;65.39;99570.94;4988192;28;20212;-61
2024/01/05 04:49:15;;;;;;;2.10;1.30;;;;;;;-1.48;65.06;99574.31;4993833;28;20210;-58
2024/01/05 04:51:43;;;;;;;1.53;0.90;;;;;;;-1.48;65.37;99576.84;4991405;28;20214;-58
2024/01/05 04:54:11;;;;;;;5.87;1.40;;;;;;;-1.47;65.61;99582.78;4991205;28;20231;-58
2024/01/05 04:56:39;;;;;;;1.23;1.13;;;;;;;-1.47;65.74;99568.47;5000029;28;20607;-58
2024/01/05 04:59:09;;;;;;;1.87;1.00;;;;;;;-1.47;65.84;99567.63;4994780;28;20250;-57
2024/01/05 05:01:37;;;;;;;3.33;1.27;;;;;;;-1.48;66.19;99571.78;5000442;28;20590;-59
2024/01/05 05:04:05;;;;;;;2.00;1.10;;;;;;;-1.47;66.41;99577.72;4994809;28;20204;-59
2024/01/05 05:06:33;;;;;;;2.53;1.43;;;;;;;-1.50;66.57;99575.09;4991493;28;20247;-59
2024/01/05 05:09:02;;;;;;;1.43;1.10;;;;;;;-1.51;66.57;99584.38;4990057;28;20212;-56
2024/01/05 05:11:30;;;;;;;1.20;1.10;;;;;;;-1.58;66.46;99582.47;4983014;28;20731;-64
2024/01/05 05:13:58;;;;;;;1.67;1.20;;;;;;;-1.57;67.20;99591.75;4996064;28;20214;-58
2024/01/05 05:16:27;;;;;;;1.10;1.00;;;;;;;-1.51;66.95;99586.00;4993281;28;20240;-58
2024/01/05 05:18:55;;;;;;;1.30;1.10;;;;;;;-1.50;67.07;99588.59;4994221;28;20250;-57
2024/01/05 05:21:24;;;;;;;1.50;1.27;;;;;;;-1.47;66.83;99587.84;4994992;28;20298;-58
2024/01/05 05:23:52;;;;;;;1.60;1.13;;;;;;;-1.42;66.96;99595.53;4995374;28;20265;-57
2024/01/05 05:26:20;;;;;;;0.80;0.80;;;;;;;-1.42;67.03;99600.59;4989975;28;20578;-59
2024/01/05 05:28:48;;;;;;;2.27;1.30;;;;;;;-1.45;66.76;99601.34;4989596;28;20204;-59
2024/01/05 05:31:16;;;;;;;2.43;1.37;;;;;;;-1.47;66.52;99608.91;4990658;28;20569;-59
2024/01/05 05:33:46;;;;;;;2.33;1.40;;;;;;;-1.46;67.18;99615.66;4990585;28;20208;-61
2024/01/05 05:36:14;;;;;;;0.93;0.90;;;;;;;-1.47;67.04;99610.56;4994149;28;20304;-64
2024/01/05 05:38:42;;;;;;;1.63;1.30;;;;;;;-1.43;67.28;99614.06;4995029;28;20211;-59
2024/01/05 05:41:10;;;;;;;1.90;1.30;;;;;;;-1.38;67.74;99607.44;5001714;28;20211;-59
2024/01/05 05:43:38;;;;;;;2.40;1.10;;;;;;;-1.34;67.69;99605.03;4990344;28;20284;-59
2024/01/05 05:46:06;;;;;;;1.53;0.90;;;;;;;-1.31;67.59;99612.72;4998875;28;20269;-58
2024/01/05 05:48:34;;;;;;;1.73;1.30;;;;;;;-1.27;67.29;99611.13;4994752;28;20641;-58
2024/01/05 05:51:04;;;;;;;1.87;1.20;;;;;;;-1.25;67.71;99615.44;4997731;28;20200;-59
2024/01/05 05:53:32;;;;;;;1.60;1.20;;;;;;;-1.22;67.37;99618.03;4991465;28;20581;-61
2024/01/05 05:56:00;;;;;;;2.23;1.20;;;;;;;-1.20;67.08;99627.34;4991064;28;20216;-59
2024/01/05 05:58:28;;;;;;;1.37;1.10;;;;;;;-1.25;66.57;99623.00;4994775;28;20222;-58
2024/01/05 06:00:56;;;;;;;1.73;1.30;;;;;;;-1.25;66.59;99635.66;4995246;28;20347;-58
2024/01/05 06:03:24;;;;;;;1.93;1.10;;;;;;;-1.26;66.76;99643.19;4995898;28;20254;-58
2024/01/05 06:05:52;;;;;;;1.30;1.20;;;;;;;-1.28;65.97;99650.72;4990546;28;20196;-58
2024/01/05 06:08:24;;;;;;;1.73;1.00;;;;;;;-1.28;66.05;99649.88;4988254;28;20196;-58
2024/01/05 06:10:52;;;;;;;2.70;1.03;;;;;;;-1.26;65.64;99654.13;4990008;28;21128;-62
2024/01/05 06:13:20;;;;;;;1.33;1.07;;;;;;;-1.23;65.13;99663.50;4989971;28;20383;-58
2024/01/05 06:15:48;;;;;;;2.30;1.30;;;;;;;-1.31;65.07;99664.94;4989904;28;20691;-59
2024/01/05 06:18:16;;;;;;;3.33;1.67;;;;;;;-1.35;64.78;99665.66;4986381;28;20200;-58
2024/01/05 06:20:44;;;;;;;1.93;1.20;;;;;;;-1.40;65.02;99665.53;4997494;28;20247;-59
2024/01/05 06:23:12;;;;;;;2.60;1.10;;;;;;;-1.37;65.38;99669.78;4990123;28;20271;-57
2024/01/05 06:25:45;;;;;;;2.37;1.40;;;;;;;-1.34;65.69;99674.94;4992350;28;20200;-55
2024/01/05 06:28:13;;;;;;;2.97;1.40;;;;;;;-1.32;65.58;99680.91;4998675;28;20207;-57
2024/01/05 06:30:41;;;;;;;2.80;1.30;;;;;;;-1.42;65.48;99663.75;4990578;28;20208;-58
2024/01/05 06:33:09;;;;;;;1.97;1.10;;;;;;;-1.35;65.62;99670.72;4993638;28;20244;-57
2024/01/05 06:35:37;;;;;;;1.80;1.40;;;;;;;-1.32;65.19;99673.34;4995574;28;20231;-60
2024/01/05 06:38:05;;;;;;;2.83;1.23;;;;;;;-1.29;65.15;99676.81;5002431;28;20207;-56
2024/01/05 06:40:33;;;;;;;1.53;1.33;;;;;;;-1.32;64.35;99680.91;4995070;28;20208;-66
2024/01/05 06:43:02;;;;;;;1.63;1.30;;;;;;;-1.36;64.53;99681.63;4996084;28;20200;-62
2024/01/05 06:45:31;;;;;;;1.40;1.20;;;;;;;-1.34;64.34;99690.13;4992917;28;20214;-63
2024/01/05 06:47:59;;;;;;;2.57;1.17;;;;;;;-1.36;64.50;99687.56;4992293;28;20204;-62
2024/01/05 06:50:27;;;;;;;1.17;1.07;;;;;;;-1.36;64.62;99696.78;4993992;28;20204;-60
2024/01/05 06:52:55;;;;;;;1.53;1.27;;;;;;;-1.36;64.73;99696.78;4999533;28;20255;-60
2024/01/05 06:55:23;;;;;;;3.47;2.27;;;;;;;-1.32;65.11;99703.66;4989578;28;20222;-63
2024/01/05 06:57:51;;;;;;;1.27;1.17;;;;;;;-1.36;65.26;99707.78;4987202;28;20211;-61
2024/01/05 07:00:21;;;;;;;1.23;1.10;;;;;;;-1.34;65.17;99712.84;4997206;28;20291;-68
2024/01/05 07:02:49;;;;;;;2.17;1.37;;;;;;;-1.34;65.25;99712.84;4993183;28;20663;-59
2024/01/05 07:05:17;;;;;;;3.33;1.50;;;;;;;-1.30;65.75;99707.09;4993861;28;20203;-58
2024/01/05 07:07:44;;;;;;;1.83;1.13;;;;;;;-1.30;65.09;99714.66;4995338;28;20214;-61
2024/01/05 07:10:13;;;;;;;5.77;2.87;;;;;;;-1.30;64.94;99717.19;4995597;28;20207;-60
2024/01/05 07:12:41;;;;;;;2.30;1.40;;;;;;;-1.29;65.64;99713.84;4994036;28;20291;-63
2024/01/05 07:15:09;;;;;;;1.90;1.50;;;;;;;-1.28;65.29;99715.59;4997940;28;20200;-63
2024/01/05 07:17:39;;;;;;;5.03;2.83;;;;;;;-1.23;65.90;99722.47;4989979;28;20212;-63
2024/01/05 07:20:07;;;;;;;2.63;1.50;;;;;;;-1.24;64.85;99713.19;4999086;28;20212;-63
2024/01/05 07:22:36;;;;;;;2.50;1.73;;;;;;;-1.31;65.23;99711.28;5000026;28;20246;-58
2024/01/05 07:25:05;;;;;;;2.93;1.77;;;;;;;-1.32;65.73;99713.78;4990083;28;20212;-61
2024/01/05 07:27:33;;;;;;;2.40;1.40;;;;;;;-1.36;65.16;99707.78;4993169;28;20551;-62
2024/01/05 07:30:01;;;;;;;1.90;1.43;;;;;;;-1.32;65.29;99708.72;4991574;28;20227;-62
2024/01/05 07:32:29;;;;;;;2.03;1.20;;;;;;;-1.34;64.92;99713.72;4993111;28;20724;-61
2024/01/05 07:34:58;;;;;;;2.27;1.40;;;;;;;-1.33;65.38;99707.84;4993212;28;20643;-62
2024/01/05 07:37:26;;;;;;;1.67;1.20;;;;;;;-1.30;65.32;99714.66;4996593;28;20687;-62
2024/01/05 07:39:54;;;;;;;1.77;1.40;;;;;;;-1.28;65.25;99705.47;4989233;28;20938;-57
2024/01/05 07:42:22;;;;;;;1.77;1.50;;;;;;;-1.22;65.22;99718.28;4992599;28;20222;-61
2024/01/05 07:44:51;;;;;;;2.37;1.30;;;;;;;-1.19;65.00;99725.09;4991576;28;20208;-60
2024/01/05 07:47:19;;;;;;;1.70;1.47;;;;;;;-1.16;65.19;99726.06;4992130;28;20204;-62
2024/01/05 07:49:47;;;;;;;1.70;1.53;;;;;;;-1.12;64.65;99727.00;4999166;28;20307;-62
2024/01/05 07:52:17;;;;;;;1.70;1.30;;;;;;;-1.10;64.35;99720.34;4991625;28;20203;-61
2024/01/05 07:54:46;;;;;;;1.93;1.23;;;;;;;-1.06;64.28;99727.19;4995773;28;20196;-62
2024/01/05 07:57:14;;;;;;;2.13;1.70;;;;;;;-1.06;63.76;99723.00;4989020;28;20307;-62
2024/01/05 07:59:42;;;;;;;2.37;1.70;;;;;;;-1.07;63.81;99728.88;4993504;28;20200;-61
2024/01/05 08:02:11;;;;;;;1.80;1.40;;;;;;;-1.10;64.02;99728.78;4990162;28;20283;-61
2024/01/05 08:04:39;;;;;;;5.33;1.60;;;;;;;-1.08;64.55;99729.66;4991945;28;20216;-62
2024/01/05 08:07:07;;;;;;;2.10;1.63;;;;;;;-1.04;64.78;99731.47;4997171;28;20351;-58
2024/01/05 08:09:36;;;;;;;2.23;1.50;;;;;;;-1.00;64.83;99730.75;4986721;28;20246;-62
2024/01/05 08:12:05;;;;;;;2.30;1.50;;;;;;;-1.00;65.08;99738.31;4989780;28;20258;-60
2024/01/05 08:14:33;;;;;;;4.30;2.03;;;;;;;-1.00;64.72;99733.28;4991902;28;20204;-64
2024/01/05 08:17:01;;;;;;;1.93;1.60;;;;;;;-0.99;64.72;99750.19;4989853;28;20875;-63
2024/01/05 08:19:29;;;;;;;2.17;1.60;;;;;;;-0.99;64.28;99742.59;4985597;28;20208;-61
2024/01/05 08:21:57;;;;;;;2.33;1.63;;;;;;;-0.94;64.24;99749.44;4988570;28;20230;-64
2024/01/05 08:24:25;;;;;;;2.90;1.60;;;;;;;-0.97;64.33;99748.53;4993968;28;20299;-59
2024/01/05 08:26:55;;;;;;;4.77;1.53;;;;;;;-0.95;64.28;99755.34;4989667;28;20208;-61
2024/01/05 08:29:23;;;;;;;2.27;1.67;;;;;;;-1.02;63.93;99754.28;4991305;28;20733;-64
2024/01/05 08:31:51;;;;;;;2.93;1.40;;;;;;;-1.03;64.87;99760.13;4992380;28;20275;-62
2024/01/05 08:34:19;;;;;;;2.17;1.60;;;;;;;-1.08;64.43;99752.41;4993070;28;20200;-62
2024/01/05 08:36:48;;;;;;;1.43;1.33;;;;;;;-1.13;64.81;99756.50;4996308;28;20307;-65
2024/01/05 08:39:16;;;;;;;3.20;1.60;;;;;;;-1.12;65.47;99749.75;4992332;28;20521;-62
2024/01/05 08:41:44;;;;;;;2.17;1.60;;;;;;;-1.05;65.66;99760.09;4985337;28;20216;-64
2024/01/05 08:44:14;;;;;;;2.03;1.50;;;;;;;-0.99;65.79;99757.75;4993517;28;20219;-62
2024/01/05 08:46:42;;;;;;;3.57;1.70;;;;;;;-0.96;65.74;99751.91;4984541;28;20685;-62
2024/01/05 08:49:10;;;;;;;2.50;1.67;;;;;;;-0.92;65.79;99766.41;4985387;28;20214;-59
2024/01/05 08:51:42;;;;;;;2.80;1.70;;;;;;;-0.87;65.39;99776.66;4992598;28;20590;-60
2024/01/05 08:54:10;;;;;;;1.43;1.30;;;;;;;-0.88;65.19;99775.78;4988051;28;20586;-61
2024/01/05 08:56:38;;;;;;;2.00;1.50;;;;;;;-0.84;65.24;99784.34;4989746;28;20690;-61
2024/01/05 08:59:06;;;;;;;2.00;1.80;;;;;;;-0.85;65.06;99790.19;4994629;28;20204;-61
2024/01/05 09:01:36;;;;;;;1.87;1.40;;;;;;;-0.85;65.19;99797.75;4991312;28;20214;-56
2024/01/05 09:04:10;;;;;;;1.60;1.30;;;;;;;-0.85;65.33;99795.25;4990280;28;20212;-63
2024/01/05 09:06:38;;;;;;;1.83;1.30;;;;;;;-0.82;65.20;99792.81;4989650;28;20204;-60
2024/01/05 09:09:07;;;;;;;2.83;1.90;;;;;;;-0.81;65.09;99794.50;4989313;28;20200;-61
2024/01/05 09:11:35;;;;;;;1.77;1.60;;;;;;;-0.80;64.99;99796.25;4991246;28;20204;-61
2024/01/05 09:14:03;;;;;;;1.90;1.67;;;;;;;-0.82;64.96;99797.84;4990354;28;20537;-57
2024/01/05 09:16:31;;;;;;;2.40;1.70;;;;;;;-0.84;65.28;99799.50;4989401;28;20583;-60
2024/01/05 09:19:00;;;;;;;5.13;1.93;;;;;;;-0.86;65.73;99801.97;4988449;28;20208;-62
2024/01/05 09:21:28;;;;;;;2.27;1.43;;;;;;;-0.88;65.60;99800.22;4992858;28;20650;-62
2024/01/05 09:23:56;;;;;;;4.17;2.70;;;;;;;-0.94;66.16;99803.41;4988318;28;20621;-63
2024/01/05 09:26:24;;;;;;;2.50;1.67;;;;;;;-1.01;66.79;99809.09;4989391;28;20263;-62
2024/01/05 09:28:52;;;;;;;4.07;2.00;;;;;;;-1.04;66.95;99809.84;4986682;28;20203;-61
2024/01/05 09:31:20;;;;;;;3.33;2.10;;;;;;;-1.06;67.87;99808.97;4988312;28;20215;-66
2024/01/05 09:33:49;;;;;;;3.80;2.03;;;;;;;-1.09;67.45;99806.31;4984974;28;20550;-63
2024/01/05 09:36:19;;;;;;;3.33;1.87;;;;;;;-1.11;68.18;99807.94;4983563;28;20731;-62
2024/01/05 09:38:47;;;;;;;2.93;1.87;;;;;;;-1.06;68.44;99814.00;4980976;28;20250;-60
2024/01/05 09:41:15;;;;;;;3.20;1.97;;;;;;;-1.06;68.01;99814.00;4989577;28;20207;-62
2024/01/05 09:43:48;;;;;;;3.07;1.63;;;;;;;-1.01;68.16;99815.00;4987623;28;20633;-64
2024/01/05 09:46:17;;;;;;;2.67;1.70;;;;;;;-0.93;68.39;99806.78;4986578;28;20207;-62
2024/01/05 09:48:45;;;;;;;4.07;1.77;;;;;;;-0.88;68.31;99808.66;4997828;28;20211;-64
2024/01/05 09:51:22;;;;;;;2.70;1.77;;;;;;;-0.84;68.10;99799.50;4988681;28;20218;-63
2024/01/05 09:53:51;;;;;;;2.70;1.43;;;;;;;-0.91;66.43;99795.94;4993834;28;20252;-61
2024/01/05 09:56:19;;;;;;;2.07;1.33;;;;;;;-0.88;66.22;99792.63;4990844;28;20215;-62
2024/01/05 09:58:48;;;;;;;5.13;1.67;;;;;;;-0.81;66.69;99779.34;4986676;28;20290;-60
2024/01/05 10:01:22;;;;;;;1.63;1.30;;;;;;;-0.71;65.71;99793.97;4990518;28;20208;-68
2024/01/05 10:03:55;;;;;;;3.13;2.10;;;;;;;-0.65;64.80;99791.63;4987399;28;21077;-63
2024/01/05 10:06:25;;;;;;;2.80;1.30;;;;;;;-0.57;64.94;99796.91;4990416;28;20219;-64
2024/01/05 10:08:54;;;;;;;1.90;1.60;;;;;;;-0.49;64.73;99792.94;5005066;28;20207;-61
2024/01/05 10:11:34;;;;;;;1.83;1.17;;;;;;;-0.44;63.65;99790.53;4988886;28;20203;-58
2024/01/05 10:14:05;;;;;;;1.97;1.27;;;;;;;-0.41;62.85;99795.69;4989302;28;20655;-61
2024/01/05 10:16:37;;;;;;;1.37;1.20;;;;;;;-0.38;62.90;99799.16;4995314;28;20208;-64
2024/01/05 10:19:13;;;;;;;1.83;1.30;;;;;;;-0.27;62.50;99804.53;4993228;28;20223;-63
2024/01/05 10:21:44;;;;;;;2.23;1.33;;;;;;;-0.18;62.47;99814.06;4992970;28;20204;-63
2024/01/05 10:24:16;;;;;;;2.17;1.27;;;;;;;-0.17;61.74;99820.84;4991869;28;20655;-63
2024/01/05 10:27:00;;;;;;;1.70;1.20;;;;;;;-0.17;61.40;99821.69;5000476;28;20568;-62
2024/01/05 10:29:28;;;;;;;1.60;1.30;;;;;;;-0.14;61.04;99818.41;4990177;28;20208;-62
2024/01/05 10:32:11;;;;;;;3.03;1.00;;;;;;;-0.09;60.49;99824.44;4988331;28;20279;-61
2024/01/05 10:34:40;;;;;;;1.40;1.30;;;;;;;-0.10;60.56;99823.56;5001283;28;20214;-67
2024/01/05 10:37:11;;;;;;;1.73;1.30;;;;;;;-0.11;59.61;99828.59;4994802;28;20224;-66
2024/01/05 10:39:39;;;;;;;2.20;1.60;;;;;;;-0.13;59.50;99832.75;4997445;28;20582;-65
2024/01/05 10:42:20;;;;;;;1.20;1.00;;;;;;;-0.12;59.19;99831.94;4993863;28;20204;-62
2024/01/05 10:44:52;;;;;;;2.77;1.80;;;;;;;-0.14;58.79;99839.50;4988990;28;20619;-62
2024/01/05 10:47:21;;;;;;;3.03;1.20;;;;;;;-0.21;58.96;99842.69;4993034;28;20204;-58
2024/01/05 10:49:51;;;;;;;1.73;1.47;;;;;;;-0.22;58.98;99840.09;4990807;28;20266;-63
2024/01/05 10:52:22;;;;;;;1.23;1.13;;;;;;;-0.23;58.82;99849.34;4995593;28;20655;-66
2024/01/05 10:54:52;;;;;;;1.97;1.17;;;;;;;-0.26;58.09;99841.66;4992581;28;20204;-61
2024/01/05 10:57:22;;;;;;;2.50;1.23;;;;;;;-0.29;57.81;99845.00;4990351;28;20240;-61
2024/01/05 10:59:52;;;;;;;2.30;1.20;;;;;;;-0.30;57.60;99847.47;4996527;28;20727;-62
2024/01/05 11:02:22;;;;;;;1.60;1.30;;;;;;;-0.31;57.86;99843.22;4988624;28;20270;-62
2024/01/05 11:04:58;;;;;;;1.50;1.27;;;;;;;-0.27;58.06;99843.34;4988595;28;20686;-62
2024/01/05 11:07:31;;;;;;;1.73;1.30;;;;;;;-0.21;58.33;99845.22;4991940;28;20191;-63
2024/01/05 11:10:13;;;;;;;1.27;1.00;;;;;;;-0.15;58.20;99839.44;4993453;28;20218;-65
2024/01/05 11:13:02;;;;;;;3.30;1.23;;;;;;;-0.05;58.28;99837.22;4991333;28;20207;-62
2024/01/05 11:15:47;;;;;;;2.03;1.20;;;;;;;0.07;57.92;99830.75;4991318;28;20212;-62
2024/01/05 11:18:41;;;;;;;2.30;1.10;;;;;;;0.14;57.53;99835.19;4987548;28;20216;-65
2024/01/05 11:21:11;;;;;;;5.47;2.00;;;;;;;0.20;57.32;99832.81;4992033;28;20572;-56
2024/01/05 11:23:43;;;;;;;2.00;1.50;;;;;;;0.21;56.43;99819.31;4993631;28;20267;-54
2024/01/05 11:26:34;;;;;;;1.63;1.00;;;;;;;0.19;55.93;99820.97;4996634;28;20200;-54
2024/01/05 11:29:03;;;;;;;2.47;1.30;;;;;;;0.21;55.82;99824.41;4985926;28;20207;-54
2024/01/05 11:31:58;;;;;;;3.37;1.37;;;;;;;0.21;55.55;99829.47;4994753;28;20254;-55
2024/01/05 11:34:32;;;;;;;1.50;1.10;;;;;;;0.21;55.12;99824.41;4973825;28;20663;-57
2024/01/05 11:37:01;;;;;;;1.13;1.00;;;;;;;0.19;54.84;99838.72;5002252;28;20281;-54
2024/01/05 11:39:46;;;;;;;3.70;0.90;;;;;;;0.17;54.48;99837.81;5000459;28;20262;-62
2024/01/05 11:42:28;;;;;;;0.90;0.70;;;;;;;0.14;53.51;99837.72;5000073;28;20237;-62
2024/01/05 11:44:57;;;;;;;0.80;0.70;;;;;;;0.17;53.18;99842.88;5005396;28;20663;-63